Aeroclub de GuadalajaraInformación meteorológica

Información de METAR

 

LEMD - Madrid / Barajas
Distancia desde la estación: SO 49km
Actualización: 23/05/2018 09:00
Despejado
Despejado
 Viento del O
Viento: O 2 km/h
Temperatura: 18°C
Rocío: 13°C
Humedad: 73%
Barómetro: 1017 hPa
Resumen: Despejado
Visibilidad: más de 10 km
2018/05/23 07:00 LEMD 230700Z 28001KT CAVOK 18/13 Q1017 NOSIG
LECV - Madrid / Colmenar Viejo
Distancia desde la estación: OSO 47km
Actualización: 23/05/2018 09:00
Poco nuboso
Poco nuboso
 Viento del varies
Viento: varies 2 km/h
Temperatura: 18°C
Rocío: 10°C
Humedad: 60%
Barómetro: 1018 hPa
Nubes: Poco nuboso
Visibilidad: 10 km
Detalle de Nubes: Poco nuboso 1829 m
2018/05/23 07:00 LECV 230700Z VRB01KT 9999 FEW060 18/10 Q1018
LETO - Madrid / Torrejon
Distancia desde la estación: SSO 45km
Actualización: 23/05/2018 09:00
Despejado
Despejado
 Viento del NE
Viento: NE 4 km/h
Temperatura: 17°C
Rocío: 13°C
Humedad: 77%
Barómetro: 1018 hPa
Resumen: Despejado
Visibilidad: más de 10 km
2018/05/23 07:00 LETO 230700Z 05002KT CAVOK 17/13 Q1018 NOSIG
 
LEVS - Madrid / Cuatro vientos
Distancia desde la estación: SO 70km
Actualización: 01/01/1970 01:00
NO actualizado
unable to load LEVS data RC=404 Not Found
unable to load LEVS data RC=404 Not Found
 
LEGT - Madrid / Getafe
Distancia desde la estación: SSO 74km
Actualización: 23/05/2018 09:00
Despejado
Despejado
 Viento del NE
Viento: NE 7 km/h
Temperatura: 17°C
Rocío: 13°C
Humedad: 77%
Barómetro: 1017 hPa
Resumen: Despejado
Visibilidad: más de 10 km
2018/05/23 07:00 LEGT 230700Z 05004KT CAVOK 17/13 Q1017
LEBL - Barcelona / Aeropuerto
Distancia desde la estación: E 447km
Actualización: 23/05/2018 09:00
Despejado
Despejado
 Viento del NO
Viento: NO 11 km/h
Temperatura: 18°C
Rocío: 14°C
Humedad: 78%
Barómetro: 1017 hPa
Resumen: Despejado
Visibilidad: más de 10 km
2018/05/23 07:00 LEBL 230700Z 32006KT 280V350 CAVOK 18/14 Q1017 NOSIG
 
LEVC - Valencia /Aeropuerto
Distancia desde la estación: ESE 280km
Actualización: 23/05/2018 09:00
Muy nuboso
Muy nuboso
 Viento del ENE
Viento: ENE 7 km/h
Temperatura: 20°C
Rocío: 17°C
Humedad: 83%
Barómetro: 1017 hPa
Nubes: Muy nuboso
Visibilidad: 7 km
Detalle de Nubes: Muy nuboso 366 m
2018/05/23 07:00 LEVC 230700Z 07004KT 040V110 7000 BKN012 20/17 Q1017 BECMG NSC
LEZG - Zaragoza / Aeropuerto
Distancia desde la estación: ENE 206km
Actualización: 23/05/2018 09:00
Poco nuboso
Poco nuboso
 Viento del NO
Viento: NO 7 km/h
Temperatura: 17°C
Rocío: 10°C
Humedad: 64%
Barómetro: 1018 hPa
Nubes: Poco nuboso
Visibilidad: 10 km
Detalle de Nubes: Poco nuboso 2134 m
2018/05/23 07:00 LEZG 230700Z 32004KT 280V030 9999 FEW070 17/10 Q1018
LEGR - Granada / Aeropuerto
Distancia desde la estación: S 411km
Actualización: 23/05/2018 09:00
Poco nuboso
Poco nuboso
 Viento del calm
Viento: Calma
Temperatura: 15°C
Rocío: 12°C
Humedad: 82%
Barómetro: 1017 hPa
Nubes: Poco nuboso
Visibilidad: 10 km
Detalle de Nubes: Poco nuboso 2743 m
2018/05/23 07:00 LEGR 230700Z 00000KT 9999 FEW090 15/12 Q1017